< < Back
Terminal Aerodrome Forecast


Current Version              Previous Versions:   1  2  3  4  5  6  7  8  9  

Terminal Aerodrome Forecast

654
FTUS42 KFFC 290147 AAA
TAFFTY
TAF AMD
KFTY 290147Z 2902/2924 24008KT P6SM VCSH FEW050 SCT250
     FM290600 26006KT P6SM SCT250
     FM291200 26005KT P6SM BKN015
     FM291600 28010KT P6SM SCT040=



Latest METAR

007
SAUS70 KWBC 291400 RRB
MTRFTY
METAR KFTY 291353Z VRB03KT 10SM FEW018 27/22 A3004 RMK AO2 SLP163
T02670217


USA.gov is the U.S. government's official web portal to all federal, state and local government web resources and services.